Time;durP1;ratioP1;P1;durP2;ratioP2;P2;SDS_P1;SDS_P2;PMS_P1;PMS_P2;Temp;Humidity;BMP_temperature;BMP_pressure;BME280_temperature;BME280_humidity;BME280_pressure;Samples;Min_cycle;Max_cycle;Signal;HPM_P1;HPM_P2
2022/12/05 00:00:31;;;;;;;69.00;24.37;;;3.00;99.90;;;;;;5004092;28;20525;-67
2022/12/05 00:03:03;;;;;;;62.03;27.57;;;3.00;99.90;;;;;;5002598;28;20424;-65
2022/12/05 00:05:29;;;;;;;71.80;26.53;;;3.00;99.90;;;;;;5006201;28;20964;-66
2022/12/05 00:07:55;;;;;;;79.30;31.23;;;3.00;99.90;;;;;;5010909;28;20415;-67
2022/12/05 00:10:21;;;;;;;86.37;32.53;;;3.00;99.90;;;;;;5010479;28;20430;-68
2022/12/05 00:12:46;;;;;;;59.13;27.17;;;3.00;99.90;;;;;;5005123;28;20258;-66
2022/12/05 00:15:13;;;;;;;63.47;27.93;;;3.00;99.90;;;;;;5010686;28;20845;-66
2022/12/05 00:17:40;;;;;;;74.77;30.67;;;2.90;99.90;;;;;;5004278;28;21041;-66
2022/12/05 00:20:09;;;;;;;77.70;31.90;;;2.90;99.90;;;;;;5009442;28;20761;-67
2022/12/05 00:22:37;;;;;;;64.50;29.23;;;2.90;99.90;;;;;;5002725;28;20972;-66
2022/12/05 00:25:08;;;;;;;66.47;26.93;;;3.00;99.90;;;;;;5002694;28;20475;-66
2022/12/05 00:27:36;;;;;;;67.40;26.40;;;3.00;99.90;;;;;;5006162;28;20510;-67
2022/12/05 00:30:03;;;;;;;63.53;30.00;;;3.00;99.90;;;;;;5003594;28;20427;-67
2022/12/05 00:32:34;;;;;;;70.73;30.40;;;3.00;99.90;;;;;;5010083;28;20458;-67
2022/12/05 00:35:00;;;;;;;88.80;30.00;;;3.00;99.90;;;;;;5007896;28;20834;-65
2022/12/05 00:37:26;;;;;;;65.30;30.13;;;3.00;99.90;;;;;;5054337;23;20466;-68
2022/12/05 00:39:51;;;;;;;83.23;31.37;;;3.00;99.90;;;;;;5031079;28;20156;-68
2022/12/05 00:42:17;;;;;;;61.00;27.50;;;3.00;99.90;;;;;;5031069;28;20731;-68
2022/12/05 00:44:43;;;;;;;62.07;28.17;;;3.00;99.90;;;;;;5043484;28;20221;-69
2022/12/05 00:47:08;;;;;;;72.70;30.50;;;3.00;99.90;;;;;;5039222;28;20248;-68
2022/12/05 00:49:34;;;;;;;68.33;30.97;;;3.10;99.90;;;;;;5030882;28;20164;-68
2022/12/05 00:51:59;;;;;;;65.70;28.10;;;3.10;99.90;;;;;;5031007;28;20171;-68
2022/12/05 00:54:25;;;;;;;66.17;31.03;;;3.10;99.90;;;;;;5030842;28;20164;-69
2022/12/05 00:56:55;;;;;;;60.53;26.50;;;3.00;99.90;;;;;;5013322;28;20201;-68
2022/12/05 00:59:21;;;;;;;67.43;27.07;;;3.00;99.90;;;;;;5019740;28;20267;-68
2022/12/05 01:01:48;;;;;;;61.47;29.03;;;3.00;99.90;;;;;;5011153;28;20410;-68
2022/12/05 01:04:23;;;;;;;71.33;30.50;;;3.00;99.90;;;;;;5011289;28;20935;-70
2022/12/05 01:06:49;;;;;;;74.63;28.80;;;3.00;99.90;;;;;;5011559;28;20403;-70
2022/12/05 01:09:19;;;;;;;69.73;26.37;;;3.00;99.90;;;;;;5011165;28;20779;-68
2022/12/05 01:11:45;;;;;;;80.20;27.20;;;3.00;99.90;;;;;;5011185;28;20430;-68
2022/12/05 01:14:13;;;;;;;72.97;30.23;;;3.10;99.90;;;;;;5010996;28;20461;-68
2022/12/05 01:16:40;;;;;;;77.97;32.10;;;3.10;99.90;;;;;;5011121;28;20407;-68
2022/12/05 01:19:13;;;;;;;62.07;28.30;;;3.10;99.90;;;;;;5010887;28;20427;-68
2022/12/05 01:21:39;;;;;;;65.80;26.30;;;3.10;99.90;;;;;;5011416;28;20396;-68
2022/12/05 01:24:05;;;;;;;81.40;33.00;;;3.10;99.90;;;;;;5014922;28;20449;-68
2022/12/05 01:26:32;;;;;;;80.00;29.60;;;3.10;99.90;;;;;;5014402;28;20176;-68
2022/12/05 01:28:57;;;;;;;60.77;26.73;;;3.10;99.90;;;;;;5014295;28;20196;-67
2022/12/05 01:31:25;;;;;;;63.43;29.47;;;3.10;99.90;;;;;;5014231;28;20514;-68
2022/12/05 01:33:52;;;;;;;64.03;26.73;;;3.10;99.90;;;;;;5014211;28;20204;-68
2022/12/05 01:36:18;;;;;;;69.77;27.60;;;3.10;99.90;;;;;;5014290;28;20414;-68
2022/12/05 01:38:44;;;;;;;75.17;31.60;;;3.10;99.90;;;;;;5013990;28;20952;-68
2022/12/05 01:41:17;;;;;;;60.40;27.37;;;3.10;99.90;;;;;;5014209;28;20694;-69
2022/12/05 01:43:53;;;;;;;68.73;31.60;;;3.10;99.90;;;;;;5014362;28;20575;-68
2022/12/05 01:46:18;;;;;;;80.70;29.97;;;3.10;99.90;;;;;;5014331;28;20402;-68
2022/12/05 01:48:44;;;;;;;69.47;29.00;;;3.10;99.90;;;;;;5014304;28;20462;-68
2022/12/05 01:51:10;;;;;;;73.50;30.40;;;3.10;99.90;;;;;;4996743;28;20172;-68
2022/12/05 01:53:36;;;;;;;59.33;25.70;;;3.10;99.90;;;;;;5014161;28;20208;-68
2022/12/05 01:56:02;;;;;;;59.57;28.50;;;3.10;99.90;;;;;;5014201;28;20407;-67
2022/12/05 01:58:34;;;;;;;85.73;29.50;;;3.10;99.90;;;;;;5013766;28;20423;-68
2022/12/05 02:01:00;;;;;;;62.77;27.50;;;3.10;99.90;;;;;;5013838;28;20414;-68
2022/12/05 02:03:26;;;;;;;77.37;27.40;;;3.10;99.90;;;;;;5013838;28;20414;-67
2022/12/05 02:05:55;;;;;;;63.17;29.23;;;3.10;99.90;;;;;;5013844;28;20490;-68
2022/12/05 02:08:22;;;;;;;69.40;28.27;;;3.10;99.90;;;;;;5013684;28;20435;-68
2022/12/05 02:10:53;;;;;;;73.10;27.43;;;3.10;99.90;;;;;;5013788;28;20466;-68
2022/12/05 02:13:33;;;;;;;75.60;28.47;;;3.10;99.90;;;;;;5013749;28;20497;-69
2022/12/05 02:16:23;;;;;;;55.10;26.53;;;3.10;99.90;;;;;;4995843;28;20406;-70
2022/12/05 02:18:58;;;;;;;56.47;27.53;;;3.10;99.90;;;;;;5013411;28;20435;-68
2022/12/05 02:22:01;;;;;;;79.47;32.57;;;3.10;99.90;;;;;;5013480;28;20402;-67
2022/12/05 02:24:27;;;;;;;64.23;27.60;;;3.10;99.90;;;;;;5010680;28;20414;-69
2022/12/05 02:27:46;;;;;;;69.10;30.73;;;3.10;99.90;;;;;;5013256;28;20454;-68
2022/12/05 02:30:18;;;;;;;65.03;25.70;;;3.10;99.90;;;;;;4914466;29;20441;-68
2022/12/05 02:33:02;;;;;;;65.10;25.50;;;3.10;99.90;;;;;;4914352;29;20466;-68
2022/12/05 02:36:02;;;;;;;80.83;31.10;;;3.10;99.90;;;;;;4976303;28;20755;-68
2022/12/05 02:38:36;;;;;;;85.27;29.00;;;3.10;99.90;;;;;;5013143;28;20513;-68
2022/12/05 02:41:31;;;;;;;65.43;28.13;;;3.10;99.90;;;;;;5013333;28;20474;-69
2022/12/05 02:44:16;;;;;;;67.33;28.03;;;3.10;99.90;;;;;;5013218;28;20413;-68
2022/12/05 02:46:43;;;;;;;61.57;27.00;;;3.10;99.90;;;;;;5022429;28;20399;-68
2022/12/05 02:49:13;;;;;;;64.13;29.20;;;3.10;99.90;;;;;;5017227;28;20505;-68
2022/12/05 02:51:44;;;;;;;64.57;26.00;;;3.00;99.90;;;;;;5012575;28;20427;-68
2022/12/05 02:54:15;;;;;;;73.33;27.87;;;3.10;99.90;;;;;;5012518;28;20530;-68
2022/12/05 02:56:44;;;;;;;59.30;26.90;;;3.10;99.90;;;;;;5002551;28;20419;-68
2022/12/05 02:59:10;;;;;;;66.83;28.63;;;3.10;99.90;;;;;;4996403;28;20570;-68
2022/12/05 03:01:36;;;;;;;63.93;28.83;;;3.10;99.90;;;;;;5012542;28;20498;-68
2022/12/05 03:04:05;;;;;;;68.37;26.70;;;3.10;99.90;;;;;;5021902;28;20568;-68
2022/12/05 03:07:00;;;;;;;69.30;27.17;;;3.10;99.90;;;;;;5016746;28;20283;-67
2022/12/05 03:09:37;;;;;;;58.13;24.30;;;3.10;99.90;;;;;;4998173;28;20842;-68
2022/12/05 03:12:21;;;;;;;48.27;22.93;;;3.10;99.90;;;;;;5011994;28;20442;-69
2022/12/05 03:14:51;;;;;;;52.77;24.67;;;3.10;99.90;;;;;;5015522;28;20422;-68
2022/12/05 03:17:23;;;;;;;52.33;24.10;;;3.10;99.90;;;;;;5016485;28;20478;-68
2022/12/05 03:20:05;;;;;;;57.70;25.13;;;3.10;99.90;;;;;;5012184;28;20400;-67
2022/12/05 03:22:36;;;;;;;53.43;25.67;;;3.10;99.90;;;;;;5015922;28;20447;-69
2022/12/05 03:25:03;;;;;;;56.73;23.07;;;3.10;99.90;;;;;;5012760;28;20540;-69
2022/12/05 03:27:45;;;;;;;52.03;23.00;;;3.00;99.90;;;;;;5007240;28;20431;-69
2022/12/05 03:30:17;;;;;;;57.23;23.47;;;3.00;99.90;;;;;;5012658;28;20458;-68
2022/12/05 03:33:12;;;;;;;51.17;23.90;;;3.10;99.90;;;;;;5012138;28;20443;-68
2022/12/05 03:36:03;;;;;;;47.87;22.90;;;3.10;99.90;;;;;;5021054;28;20402;-68
2022/12/05 03:38:51;;;;;;;46.00;20.87;;;3.10;99.90;;;;;;5004851;28;20540;-69
2022/12/05 03:41:31;;;;;;;45.00;21.90;;;3.10;99.90;;;;;;5016971;28;20465;-69
2022/12/05 03:44:06;;;;;;;44.10;20.80;;;3.10;99.90;;;;;;5011170;28;20415;-69
2022/12/05 03:47:07;;;;;;;49.37;19.90;;;3.10;99.90;;;;;;5011617;28;20410;-69
2022/12/05 03:49:42;;;;;;;47.00;22.47;;;3.10;99.90;;;;;;5004899;28;20412;-68
2022/12/05 03:52:29;;;;;;;52.53;23.20;;;3.10;99.90;;;;;;5010239;28;20407;-68
2022/12/05 03:54:58;;;;;;;46.07;22.60;;;3.10;99.90;;;;;;5009732;28;20426;-68
2022/12/05 03:57:37;;;;;;;44.27;21.50;;;3.10;99.90;;;;;;5020098;28;20493;-67
2022/12/05 04:00:14;;;;;;;46.80;21.87;;;3.10;99.90;;;;;;5011372;28;20469;-68
2022/12/05 04:02:59;;;;;;;53.20;21.93;;;3.00;99.90;;;;;;5010677;28;20432;-67
2022/12/05 04:05:35;;;;;;;52.13;22.27;;;3.00;99.90;;;;;;5003778;28;20419;-69
2022/12/05 04:08:06;;;;;;;48.70;19.50;;;3.00;99.90;;;;;;5009532;28;20537;-68
2022/12/05 04:10:47;;;;;;;48.57;21.27;;;3.00;99.90;;;;;;5011517;28;20425;-68
2022/12/05 04:13:23;;;;;;;44.73;21.03;;;3.00;99.90;;;;;;5003980;28;20820;-68
2022/12/05 04:18:58;;;;;;;52.17;24.07;;;3.00;99.90;;;;;;5011888;28;20426;-68
2022/12/05 04:21:37;;;;;;;47.57;22.47;;;3.10;99.90;;;;;;5009804;28;20406;-68
2022/12/05 04:27:05;;;;;;;45.07;19.50;;;3.00;99.90;;;;;;5004086;28;20417;-67
2022/12/05 04:29:36;;;;;;;49.60;22.00;;;3.00;99.90;;;;;;5015549;28;20449;-68
2022/12/05 04:32:07;;;;;;;49.27;21.90;;;3.00;99.90;;;;;;5002718;28;20905;-68
2022/12/05 04:34:36;;;;;;;53.27;23.20;;;3.00;99.90;;;;;;5012717;28;20501;-68
2022/12/05 04:37:12;;;;;;;48.97;21.10;;;3.00;99.90;;;;;;5010781;28;20805;-69
2022/12/05 04:39:54;;;;;;;43.97;23.03;;;3.00;99.90;;;;;;5009783;28;20426;-69
2022/12/05 04:42:24;;;;;;;52.20;23.33;;;3.00;99.90;;;;;;5010973;28;20482;-68
2022/12/05 04:44:53;;;;;;;36.20;19.07;;;3.00;99.90;;;;;;5010818;28;20511;-68
2022/12/05 04:47:23;;;;;;;58.87;23.23;;;3.00;99.90;;;;;;5010978;28;20522;-68
2022/12/05 04:49:51;;;;;;;40.33;21.17;;;3.00;99.90;;;;;;5011152;28;20412;-68
2022/12/05 04:52:17;;;;;;;43.13;21.67;;;3.00;99.90;;;;;;5010435;28;20905;-68
2022/12/05 04:54:53;;;;;;;43.80;22.20;;;3.00;99.90;;;;;;5013899;28;20418;-68
2022/12/05 04:57:48;;;;;;;42.03;20.37;;;3.00;99.90;;;;;;5022294;28;20431;-68
2022/12/05 05:00:14;;;;;;;41.33;18.80;;;3.00;99.90;;;;;;5003728;28;20419;-68
2022/12/05 05:02:46;;;;;;;42.57;22.03;;;3.00;99.90;;;;;;5005773;28;20420;-68
2022/12/05 05:05:15;;;;;;;40.70;18.57;;;3.00;99.90;;;;;;5015224;28;20414;-69
2022/12/05 05:07:47;;;;;;;41.43;19.87;;;2.90;99.90;;;;;;5017659;28;20551;-68
2022/12/05 05:10:24;;;;;;;33.13;17.40;;;3.00;99.90;;;;;;5011852;28;21064;-68
2022/12/05 05:12:49;;;;;;;35.77;17.90;;;3.00;99.90;;;;;;5011902;28;20537;-68
2022/12/05 05:15:15;;;;;;;35.67;18.87;;;3.00;99.90;;;;;;5014286;28;20415;-69
2022/12/05 05:17:41;;;;;;;39.17;18.57;;;3.00;99.90;;;;;;5026575;28;20551;-69
2022/12/05 05:22:52;;;;;;;44.73;17.47;;;3.00;99.90;;;;;;5012159;28;20198;-68
2022/12/05 05:25:19;;;;;;;39.03;20.00;;;2.90;99.90;;;;;;5014079;28;20422;-68
2022/12/05 05:27:50;;;;;;;37.77;18.83;;;2.90;99.90;;;;;;5013770;28;20530;-68
2022/12/05 05:30:16;;;;;;;38.57;15.87;;;3.00;99.90;;;;;;5006516;28;20419;-68
2022/12/05 05:32:41;;;;;;;30.20;17.20;;;3.00;99.90;;;;;;5013724;28;20447;-68
2022/12/05 05:35:07;;;;;;;40.83;19.67;;;2.90;99.90;;;;;;5012212;28;21096;-68
2022/12/05 05:37:33;;;;;;;37.67;17.53;;;3.00;99.90;;;;;;5013525;28;20230;-69
2022/12/05 05:39:58;;;;;;;35.17;16.60;;;2.90;99.90;;;;;;5005402;28;20408;-69
2022/12/05 05:42:24;;;;;;;27.90;15.17;;;3.00;99.90;;;;;;5013681;28;20603;-68
2022/12/05 05:44:50;;;;;;;29.43;17.10;;;3.00;99.90;;;;;;5012448;28;20187;-68
2022/12/05 05:47:15;;;;;;;30.47;16.10;;;3.00;99.90;;;;;;5013887;28;20176;-67
2022/12/05 05:49:41;;;;;;;25.37;16.10;;;2.90;99.90;;;;;;4997543;28;20185;-68
2022/12/05 05:52:06;;;;;;;29.60;15.90;;;2.90;99.90;;;;;;5022637;28;20192;-69
2022/12/05 05:54:32;;;;;;;31.23;18.13;;;3.00;99.90;;;;;;4995637;28;20184;-67
2022/12/05 05:56:57;;;;;;;35.60;15.47;;;3.00;99.90;;;;;;5022956;28;20588;-68
2022/12/05 05:59:23;;;;;;;28.90;16.40;;;3.00;99.90;;;;;;5013109;28;20168;-68
2022/12/05 06:01:48;;;;;;;31.70;15.87;;;2.90;99.90;;;;;;5013303;28;20218;-68
2022/12/05 06:04:14;;;;;;;23.37;13.07;;;3.00;99.90;;;;;;5013048;28;20653;-67
2022/12/05 06:06:40;;;;;;;31.47;16.50;;;3.00;99.90;;;;;;5012781;28;20262;-68
2022/12/05 06:09:06;;;;;;;27.47;15.33;;;3.00;99.90;;;;;;5023191;28;20200;-67
2022/12/05 06:11:32;;;;;;;28.83;15.60;;;3.00;99.90;;;;;;5012553;28;20169;-63
2022/12/05 06:14:02;;;;;;;23.50;13.60;;;3.00;99.90;;;;;;5005038;28;20460;-67
2022/12/05 06:16:29;;;;;;;21.40;13.33;;;3.00;99.90;;;;;;5013243;28;20176;-67
2022/12/05 06:18:55;;;;;;;22.80;14.40;;;3.10;99.90;;;;;;5013339;28;20486;-68
2022/12/05 06:21:22;;;;;;;23.37;14.00;;;3.00;99.90;;;;;;5013385;28;20519;-67
2022/12/05 06:23:48;;;;;;;31.10;16.33;;;3.00;99.90;;;;;;5013267;28;20427;-68
2022/12/05 06:26:17;;;;;;;21.00;13.27;;;3.00;99.90;;;;;;5013065;28;20514;-68
2022/12/05 06:28:43;;;;;;;37.80;16.00;;;3.00;99.90;;;;;;5013052;28;20811;-68
2022/12/05 06:31:11;;;;;;;28.27;14.47;;;3.00;99.90;;;;;;5012965;28;20519;-68
2022/12/05 06:33:37;;;;;;;28.83;14.70;;;3.00;99.90;;;;;;4999210;28;20450;-68
2022/12/05 06:36:09;;;;;;;22.30;11.70;;;3.00;99.90;;;;;;5012706;28;20403;-68
2022/12/05 06:38:34;;;;;;;33.80;13.80;;;3.00;99.90;;;;;;5014848;28;21042;-67
2022/12/05 06:41:07;;;;;;;26.87;11.50;;;3.00;99.90;;;;;;5029545;28;20398;-67
2022/12/05 06:43:32;;;;;;;24.83;13.40;;;3.00;99.90;;;;;;5027763;28;20270;-68
2022/12/05 06:45:59;;;;;;;23.23;13.23;;;3.00;99.90;;;;;;5056331;23;20535;-65
2022/12/05 06:48:24;;;;;;;25.30;13.33;;;3.00;99.90;;;;;;5051980;28;20182;-66
2022/12/05 06:50:51;;;;;;;25.57;13.30;;;3.00;99.90;;;;;;5051075;28;20410;-71
2022/12/05 06:53:18;;;;;;;23.70;13.90;;;3.00;99.90;;;;;;5047006;28;20191;-69
2022/12/05 06:55:44;;;;;;;21.80;13.33;;;3.10;99.90;;;;;;5052034;28;20490;-75
2022/12/05 06:58:09;;;;;;;25.30;13.67;;;3.10;99.90;;;;;;5049902;28;20912;-68
2022/12/05 07:03:22;;;;;;;25.63;14.37;;;3.10;99.90;;;;;;5047927;28;20248;-68
2022/12/05 07:05:47;;;;;;;27.47;14.33;;;3.10;99.90;;;;;;5044214;28;20457;-66
2022/12/05 07:08:13;;;;;;;24.67;13.40;;;3.10;99.90;;;;;;5043817;28;20405;-66
2022/12/05 07:10:38;;;;;;;18.23;13.10;;;3.10;99.90;;;;;;5050228;28;20214;-65
2022/12/05 07:13:05;;;;;;;26.93;15.20;;;3.10;99.90;;;;;;5048953;28;20585;-66
2022/12/05 07:15:31;;;;;;;22.73;15.67;;;3.20;99.90;;;;;;5050902;28;20548;-66
2022/12/05 07:17:56;;;;;;;26.30;13.40;;;3.10;99.90;;;;;;5050942;28;20179;-66
2022/12/05 07:20:22;;;;;;;28.80;14.00;;;3.10;99.90;;;;;;5047867;28;20233;-66
2022/12/05 07:22:47;;;;;;;28.00;14.07;;;3.20;99.90;;;;;;5035732;28;20179;-65
2022/12/05 07:25:13;;;;;;;21.20;15.70;;;3.10;99.90;;;;;;5033832;28;20333;-66
2022/12/05 07:27:39;;;;;;;26.47;14.80;;;3.10;99.90;;;;;;5035146;28;20179;-66
2022/12/05 07:30:05;;;;;;;26.30;14.27;;;3.20;99.90;;;;;;5038498;28;20233;-65
2022/12/05 07:32:32;;;;;;;27.57;14.80;;;3.20;99.90;;;;;;5040829;28;20280;-66
2022/12/05 07:34:58;;;;;;;30.57;13.67;;;3.20;99.90;;;;;;5038080;28;20944;-65
2022/12/05 07:37:24;;;;;;;23.60;13.80;;;3.20;99.90;;;;;;5034765;28;20413;-66
2022/12/05 07:39:51;;;;;;;28.23;14.50;;;3.20;99.90;;;;;;5033505;28;20175;-66
2022/12/05 07:42:17;;;;;;;27.33;14.27;;;3.20;99.90;;;;;;5038769;28;20171;-65
2022/12/05 07:44:42;;;;;;;26.87;14.57;;;3.20;99.90;;;;;;5037344;28;20454;-66
2022/12/05 07:47:08;;;;;;;24.50;13.90;;;3.20;99.90;;;;;;5039569;28;20258;-68
2022/12/05 07:49:33;;;;;;;21.70;12.30;;;3.20;99.90;;;;;;5031889;28;20168;-66
2022/12/05 07:51:59;;;;;;;19.13;14.60;;;3.20;99.90;;;;;;5038852;28;20242;-67
2022/12/05 07:54:25;;;;;;;20.97;11.80;;;3.20;99.90;;;;;;5034991;28;20200;-66
2022/12/05 07:56:50;;;;;;;25.03;12.87;;;3.10;99.90;;;;;;5037984;28;20210;-68
2022/12/05 07:59:16;;;;;;;23.70;13.70;;;3.10;99.90;;;;;;5038231;28;20499;-67
2022/12/05 08:01:41;;;;;;;22.27;14.40;;;3.20;99.90;;;;;;5041285;28;20190;-65
2022/12/05 08:04:07;;;;;;;21.67;12.00;;;3.20;99.90;;;;;;5031571;28;20546;-67
2022/12/05 08:06:33;;;;;;;27.23;13.70;;;3.20;99.90;;;;;;5038619;28;20238;-67
2022/12/05 08:08:59;;;;;;;23.03;12.63;;;3.20;99.90;;;;;;5040178;28;20171;-66
2022/12/05 08:11:35;;;;;;;19.67;11.60;;;3.20;99.90;;;;;;5042100;28;20525;-67
2022/12/05 08:14:02;;;;;;;19.63;11.27;;;3.20;99.90;;;;;;5042064;28;20211;-67
2022/12/05 08:16:29;;;;;;;19.77;11.27;;;3.10;99.90;;;;;;5040245;28;20434;-67
2022/12/05 08:19:03;;;;;;;21.60;12.73;;;3.20;99.90;;;;;;5034904;28;20425;-67
2022/12/05 08:21:29;;;;;;;21.60;11.87;;;3.20;99.90;;;;;;5038643;28;20412;-67
2022/12/05 08:23:55;;;;;;;20.70;12.10;;;3.20;99.90;;;;;;5041855;28;20498;-67
2022/12/05 08:26:29;;;;;;;21.63;13.30;;;3.20;99.90;;;;;;5035880;28;20187;-68
2022/12/05 08:29:00;;;;;;;27.73;12.10;;;3.20;99.90;;;;;;5044712;28;20454;-66
2022/12/05 08:31:28;;;;;;;20.93;13.07;;;3.20;99.90;;;;;;5041443;28;20793;-66
2022/12/05 08:33:56;;;;;;;25.63;13.77;;;3.20;99.90;;;;;;5036268;28;20514;-66
2022/12/05 08:36:22;;;;;;;25.57;13.10;;;3.20;99.90;;;;;;5040132;28;20760;-67
2022/12/05 08:38:48;;;;;;;20.67;13.43;;;3.20;99.90;;;;;;5043040;28;20427;-67
2022/12/05 08:41:16;;;;;;;21.70;13.00;;;3.20;99.90;;;;;;5044145;28;20459;-67
2022/12/05 08:43:42;;;;;;;21.30;13.20;;;3.20;99.90;;;;;;5040121;28;20175;-67
2022/12/05 08:46:09;;;;;;;26.57;15.10;;;3.30;99.90;;;;;;5031053;28;20480;-67
2022/12/05 08:48:35;;;;;;;25.00;15.10;;;3.30;99.90;;;;;;5038808;28;20424;-67
2022/12/05 08:51:09;;;;;;;24.63;15.43;;;3.20;99.90;;;;;;5036335;28;20405;-67
2022/12/05 08:53:38;;;;;;;22.10;11.60;;;3.20;99.90;;;;;;5039185;28;20195;-67
2022/12/05 08:56:06;;;;;;;22.60;12.70;;;3.20;99.90;;;;;;5042904;28;20431;-68
2022/12/05 08:58:31;;;;;;;25.47;14.03;;;3.20;99.90;;;;;;5040506;28;20432;-68
2022/12/05 09:01:10;;;;;;;28.93;14.20;;;3.30;99.90;;;;;;5048904;28;20791;-66
2022/12/05 09:03:36;;;;;;;25.17;14.03;;;3.30;99.90;;;;;;5039674;28;20190;-66
2022/12/05 09:06:07;;;;;;;27.67;15.07;;;3.30;99.90;;;;;;5034663;28;20456;-68
2022/12/05 09:08:32;;;;;;;21.60;13.00;;;3.30;99.90;;;;;;5027397;28;20416;-68
2022/12/05 09:10:58;;;;;;;21.07;12.37;;;3.40;99.90;;;;;;5047010;28;20414;-67
2022/12/05 09:13:24;;;;;;;25.23;13.43;;;3.40;99.90;;;;;;5043196;28;20623;-67
2022/12/05 09:15:49;;;;;;;26.80;14.80;;;3.30;99.90;;;;;;5043516;28;20198;-67
2022/12/05 09:18:15;;;;;;;22.87;13.57;;;3.30;99.90;;;;;;5059258;28;20656;-67
2022/12/05 09:20:40;;;;;;;20.40;12.87;;;3.30;99.90;;;;;;5052873;28;20183;-66
2022/12/05 09:23:06;;;;;;;21.17;12.87;;;3.30;99.90;;;;;;5031888;28;20171;-66
2022/12/05 09:25:32;;;;;;;25.87;13.37;;;3.30;99.90;;;;;;5043924;28;20343;-66
2022/12/05 09:27:57;;;;;;;14.40;11.07;;;3.30;99.90;;;;;;5052653;28;21677;-67
2022/12/05 09:30:23;;;;;;;19.00;12.73;;;3.30;99.90;;;;;;5052366;28;20243;-67
2022/12/05 09:32:48;;;;;;;19.20;11.00;;;3.30;99.90;;;;;;5048345;28;20204;-66
2022/12/05 09:35:14;;;;;;;20.10;12.50;;;3.30;99.90;;;;;;5044728;28;20210;-66
2022/12/05 09:37:39;;;;;;;21.80;12.10;;;3.30;99.90;;;;;;5050503;28;20694;-66
2022/12/05 09:40:06;;;;;;;18.90;11.40;;;3.30;99.90;;;;;;5030626;28;20175;-66
2022/12/05 09:42:38;;;;;;;20.87;12.70;;;3.30;99.90;;;;;;5052260;28;20210;-66
2022/12/05 09:45:24;;;;;;;22.87;13.73;;;3.30;99.90;;;;;;5052537;28;20449;-66
2022/12/05 09:48:11;;;;;;;34.00;12.37;;;3.40;99.90;;;;;;5052975;28;20780;-68
2022/12/05 09:50:51;;;;;;;18.40;11.63;;;3.40;99.90;;;;;;5053124;28;20405;-65
2022/12/05 09:53:26;;;;;;;22.90;14.10;;;3.40;99.90;;;;;;5046676;28;20460;-66
2022/12/05 09:55:59;;;;;;;20.30;11.67;;;3.40;99.90;;;;;;5033527;28;20848;-65
2022/12/05 09:58:49;;;;;;;20.40;12.17;;;3.40;99.90;;;;;;5050060;28;20434;-66
2022/12/05 10:01:37;;;;;;;20.80;13.30;;;3.40;99.90;;;;;;5050794;28;20786;-65
2022/12/05 10:04:30;;;;;;;23.97;12.73;;;3.40;99.90;;;;;;5053237;28;20571;-65
2022/12/05 10:07:15;;;;;;;21.50;13.30;;;3.40;99.90;;;;;;5053409;28;20424;-66
2022/12/05 10:09:51;;;;;;;23.57;13.13;;;3.30;99.90;;;;;;5053120;28;20418;-67
2022/12/05 10:12:34;;;;;;;18.83;11.00;;;3.40;99.90;;;;;;5052901;28;20405;-67
2022/12/05 10:15:09;;;;;;;19.07;14.70;;;3.40;99.90;;;;;;5049363;28;20935;-67
2022/12/05 10:17:39;;;;;;;27.00;15.77;;;3.40;99.90;;;;;;5052700;28;20405;-67
2022/12/05 10:20:21;;;;;;;19.90;13.40;;;3.40;99.90;;;;;;5052747;28;20918;-67
2022/12/05 10:23:01;;;;;;;21.70;12.63;;;3.40;99.90;;;;;;5049984;28;20413;-67
2022/12/05 10:25:30;;;;;;;19.47;12.33;;;3.50;99.90;;;;;;5050337;28;20492;-67
2022/12/05 10:28:02;;;;;;;21.00;12.30;;;3.40;99.90;;;;;;5048536;28;20417;-67
2022/12/05 10:30:32;;;;;;;24.10;14.47;;;3.40;99.90;;;;;;5051968;28;20486;-67
2022/12/05 10:33:01;;;;;;;23.20;13.10;;;3.50;99.90;;;;;;5046718;28;20514;-67
2022/12/05 10:35:37;;;;;;;19.80;11.57;;;3.50;99.90;;;;;;5049332;28;20438;-67
2022/12/05 10:38:05;;;;;;;29.80;15.33;;;3.50;99.90;;;;;;5025979;28;20520;-68
2022/12/05 10:40:38;;;;;;;22.23;11.50;;;3.50;99.90;;;;;;5047045;28;20884;-68
2022/12/05 10:43:07;;;;;;;23.77;13.80;;;3.50;99.90;;;;;;5052190;28;20796;-68
2022/12/05 10:45:39;;;;;;;21.67;12.67;;;3.50;99.90;;;;;;5031507;28;20471;-69
2022/12/05 10:48:08;;;;;;;21.77;12.00;;;3.40;99.90;;;;;;5043288;28;20921;-68
2022/12/05 10:50:37;;;;;;;20.90;13.50;;;3.50;99.90;;;;;;5032721;28;20847;-68
2022/12/05 10:53:04;;;;;;;26.13;12.97;;;3.50;99.90;;;;;;5046044;28;20472;-68
2022/12/05 10:55:39;;;;;;;21.10;12.47;;;3.50;99.90;;;;;;5033335;28;20460;-68
2022/12/05 10:58:26;;;;;;;17.80;11.63;;;3.50;99.90;;;;;;5052383;28;20448;-68
2022/12/05 11:00:57;;;;;;;27.17;14.27;;;3.50;99.90;;;;;;5052926;28;20417;-68
2022/12/05 11:03:31;;;;;;;20.03;10.90;;;3.50;99.90;;;;;;5046997;28;20414;-69
2022/12/05 11:06:13;;;;;;;20.03;13.43;;;3.40;99.90;;;;;;5025938;28;21079;-69
2022/12/05 11:08:39;;;;;;;19.60;12.50;;;3.50;99.90;;;;;;5047813;28;20417;-78
2022/12/05 11:11:07;;;;;;;21.87;12.67;;;3.50;99.90;;;;;;5051451;28;20422;-68
2022/12/05 11:13:34;;;;;;;17.87;11.00;;;3.50;99.90;;;;;;5047777;28;20501;-69
2022/12/05 11:16:00;;;;;;;22.20;13.87;;;3.50;99.90;;;;;;5050638;28;20441;-71
2022/12/05 11:18:28;;;;;;;24.77;14.37;;;3.60;99.90;;;;;;5059058;28;20432;-69
2022/12/05 11:20:54;;;;;;;21.60;14.57;;;3.60;99.90;;;;;;5049771;28;20417;-69
2022/12/05 11:23:28;;;;;;;21.67;12.03;;;3.70;99.90;;;;;;5059765;28;20433;-70
2022/12/05 11:25:56;;;;;;;18.20;11.20;;;3.60;99.90;;;;;;5061491;28;20445;-70
2022/12/05 11:28:29;;;;;;;23.07;13.27;;;3.70;99.90;;;;;;5060744;28;20425;-69
2022/12/05 11:30:55;;;;;;;22.13;12.53;;;3.70;99.90;;;;;;5055165;28;20432;-70
2022/12/05 11:33:22;;;;;;;24.93;14.10;;;3.70;99.90;;;;;;5058817;28;20461;-70
2022/12/05 11:35:50;;;;;;;26.67;12.53;;;3.80;99.90;;;;;;5037777;28;20204;-70
2022/12/05 11:38:19;;;;;;;22.47;12.97;;;3.70;99.90;;;;;;5038494;28;20476;-70
2022/12/05 11:40:48;;;;;;;21.07;12.23;;;3.70;99.90;;;;;;5058873;28;20482;-69
2022/12/05 11:43:25;;;;;;;22.53;13.83;;;3.70;99.90;;;;;;5060219;28;20425;-70
2022/12/05 11:46:03;;;;;;;28.10;13.30;;;3.70;99.90;;;;;;5061225;28;20590;-69
2022/12/05 11:48:54;;;;;;;22.10;13.83;;;3.80;99.90;;;;;;5059251;28;20425;-69
2022/12/05 11:51:42;;;;;;;22.07;14.13;;;3.80;99.90;;;;;;5046520;28;20418;-69
2022/12/05 11:54:38;;;;;;;26.77;15.37;;;3.70;99.90;;;;;;5053698;28;20519;-70
2022/12/05 11:57:43;;;;;;;22.90;13.90;;;3.80;99.90;;;;;;5053644;28;20412;-69
2022/12/05 12:00:23;;;;;;;22.60;13.13;;;3.80;99.90;;;;;;5055411;28;20461;-69
2022/12/05 12:03:06;;;;;;;24.87;13.93;;;3.70;99.90;;;;;;5039463;28;20425;-69
2022/12/05 12:06:10;;;;;;;20.93;12.70;;;3.80;99.90;;;;;;5053483;28;20460;-70
2022/12/05 12:08:48;;;;;;;27.43;14.10;;;3.80;99.90;;;;;;5053360;28;20416;-69
2022/12/05 12:11:31;;;;;;;27.80;13.70;;;3.90;99.90;;;;;;5052618;28;20924;-69
2022/12/05 12:14:14;;;;;;;25.67;14.77;;;3.80;99.90;;;;;;5057372;28;20755;-69
2022/12/05 12:16:49;;;;;;;21.23;13.27;;;3.90;99.90;;;;;;5057206;28;20436;-69
2022/12/05 12:19:35;;;;;;;30.30;15.17;;;3.90;99.90;;;;;;5054037;28;20392;-70
2022/12/05 12:22:20;;;;;;;25.97;13.03;;;3.90;99.90;;;;;;5055554;28;20437;-70
2022/12/05 12:25:10;;;;;;;31.43;15.00;;;4.00;99.90;;;;;;5053816;28;20478;-69
2022/12/05 12:27:54;;;;;;;22.63;12.80;;;4.00;99.90;;;;;;5031492;28;20414;-72
2022/12/05 12:30:32;;;;;;;20.20;14.60;;;3.90;99.90;;;;;;5030509;28;20421;-70
2022/12/05 12:33:10;;;;;;;29.37;16.93;;;3.80;99.90;;;;;;5054931;28;20457;-70
2022/12/05 12:35:42;;;;;;;26.20;15.30;;;3.90;99.90;;;;;;5056690;28;20762;-69
2022/12/05 12:38:35;;;;;;;23.33;12.90;;;3.90;99.90;;;;;;5048517;28;20406;-70
2022/12/05 12:41:40;;;;;;;28.87;14.63;;;3.90;99.90;;;;;;5055239;28;20409;-70
2022/12/05 12:44:35;;;;;;;23.20;14.90;;;3.90;99.90;;;;;;5051817;28;20421;-70
2022/12/05 12:47:07;;;;;;;25.83;13.97;;;3.90;99.90;;;;;;5054664;28;20424;-70
2022/12/05 12:49:38;;;;;;;25.47;15.97;;;3.90;99.90;;;;;;5058052;28;20465;-70
2022/12/05 12:52:14;;;;;;;28.30;16.90;;;3.90;99.90;;;;;;5056755;28;20413;-70
2022/12/05 12:55:05;;;;;;;27.30;15.20;;;3.90;99.90;;;;;;5053618;28;20881;-70
2022/12/05 12:57:41;;;;;;;30.13;14.93;;;3.90;99.90;;;;;;5052443;28;20472;-70
2022/12/05 13:00:28;;;;;;;30.40;16.00;;;3.90;99.90;;;;;;5057352;28;20406;-70
2022/12/05 13:03:22;;;;;;;27.27;14.87;;;3.90;99.90;;;;;;5064114;28;20416;-70
2022/12/05 13:05:55;;;;;;;25.27;15.30;;;3.90;99.90;;;;;;5078422;22;20489;-65
2022/12/05 13:08:49;;;;;;;29.40;16.27;;;3.80;99.90;;;;;;5029660;28;20472;-63
2022/12/05 13:11:17;;;;;;;23.50;14.23;;;3.90;99.90;;;;;;5024211;28;20402;-65